ARCT2: Red River, ARthur City

                                SHEF ID:       ARCT2     Red River at Arthur City, TX
STATION TYPE: Stream Gauge
Regulating: Stage = 27.00, Flow = 84609

PRECIP ELEVATION STAGE STAGE(2) RIV-FLOW BAT-LOAD
in ft ft ft cfs volt
Ccp-Rev Ccp-Rev Ccp-Rev Ccp-Rev Ccp-Rev Ccp-Rev
(America/Chicago)
02/20 00:00 0.00 ---- 5.26 ---- 2402 12.49
02/20 01:00 0.00 ---- 5.25 ---- 2390 12.49
02/20 02:00 0.00 ---- 5.20 ---- 2328 12.49
02/20 03:00 0.00 ---- 5.18 ---- 2304 12.41
02/20 04:00 0.00 ---- 5.14 ---- 2255 12.41
02/20 05:00 0.00 ---- 5.11 ---- 2219 12.41
02/20 06:00 0.00 ---- 5.11 ---- 2219 12.41
02/20 07:00 0.00 ---- 5.09 ---- 2196 12.41
02/20 08:00 0.00 ---- 5.03 ---- 2125 12.41
02/20 09:00 0.00 ---- 5.04 ---- 2136 13.29
02/20 10:00 0.00 ---- 5.06 ---- 2160 14.56
02/20 11:00 0.00 ---- 4.99 ---- 2078 13.92
02/20 12:00 0.00 ---- 5.02 ---- 2113 14.16
02/20 13:00 0.00 ---- 4.95 ---- 2032 14.16
02/20 14:00 0.00 ---- 4.90 ---- 1975 14.00
02/20 15:00 0.00 ---- 4.85 ---- 1918 13.92
02/20 16:00 0.00 ---- 4.81 ---- 1874 13.60
02/20 17:00 0.00 ---- 4.83 ---- 1896 13.68
02/20 18:00 0.00 ---- 4.82 ---- 1885 13.44
02/20 19:00 0.00 ---- 4.80 ---- 1863 13.05
02/20 20:00 0.00 ---- 4.81 ---- 1874 12.65
02/20 21:00 0.00 ---- 4.81 ---- 1874 12.57
02/20 22:00 0.00 ---- 4.80 ---- 1863 12.57
02/20 23:00 0.00 ---- 4.77 ---- 1830 12.49
Data processed at Sat 21Feb2026 05:30 GMT

NOTICE: If you are parsing this page

Please convert to using our Data API. Starting early 2026 we will be migrating to: https://water.usace.army.mil with modern pages rendered in JavaScript. When this migration completes you will no longer be able to scrape this page! CWMSDataAPI (CDA)

Timeseries IDs (TSIDs)

TSIDs used from left to right in the data table
ARTH.Precip-Inc.Total.1Hour.1Hour.Ccp-Rev
ARTH.Stage.Inst.1Hour.0.Ccp-Rev
ARTH.Stage-Alt.Inst.1Hour.0.Ccp-Rev
ARTH.Flow.Inst.1Hour.0.Ccp-Rev
ARTH.Volt-Battery Load.Inst.1Hour.0.Ccp-Rev

                            

All information presented herein is the property of the government of the United States of America and may be revised or deleted at any time without prior notice. Dissemination of this information without the expressed written consent of the Public Affairs Office, Tulsa District U.S. Army Corps of Engineers is strictly prohibited. These data are gathered electronically and, as presented, have NOT undergone any form of quality control. These data are NOT guaranteed to be valid or correct.